Terminal Aerodrome Forecast
Issued by NWS Spokane, WA

Home | Current Version | Previous Version | Text Only | Print | Product List | Glossary On
Versions: 1 2 3 4 5 6 7 8 9 10 11 12 13 14 15 16 17 18 19 20 21 22 23 24 25 26 27 28 29 30 31 32 33 34 35 36 37 38 39 40 41 42 43 44 45 46 47 48 49 50
000
FTUS46 KOTX 201739
TAFGEG
TAF
KGEG 201739Z 2018/2118 12007KT 6SM -RA SCT025 OVC040
      TEMPO 2018/2022 4SM -RA BR BKN025
     FM202200 15009KT 5SM BR VCSH OVC022
     FM210100 18011KT 4SM -RA BR OVC015
     FM210300 20014KT 1SM -RA BR OVC003
     FM210900 22015G18KT 4SM BR VCSH OVC004=

USA.gov is the U.S. government's official web portal to all federal, state and local government web resources and services.